Portada
METAR-TAF:

METAR-TAF

Aeroports :

Angulema, França

latitud: 45-43-46N, longitud: 00-13-08E, altitud: 132 m

Observació

L'informe es va fer fa 33 minuts, a les 15:30 UTC
Vent 5 kt del Oest
Temperatura 9°C
Humitat 81%
Pressió 1031 hPa
Visibilitat 10 km o més

METAR: LFBU 181530Z AUTO 26005KT 9999 FEW023/// SCT040/// BKN049/// ///TCU 09/06 Q1031 TEMPO 4000 SHRA

Hora: 17:03 (16:03 UTC)

Pronòstic

L'informe es va fer fa 5 hores i 3 minuts, a les 11:00 UTC
Pronòstic vàlid del 18 a les 12 UTC al 19 a les 12 UTC
Vent 10 kt del Oest/Sud-Oest
Visibilitat 10 km o més
Cel ennuvolat a una alçada de 3000 ft
Temporalment
l' 18 a les 12 UTC al 18 a les 18 UTC
Visibilitat: 4000 m
Cel ennuvolat a una alçada de 2000 ft, Cumulus congestus.
xàfecs de pluja

TAF: LFBU 181100Z 1812/1912 25010KT 9999 BKN030 TEMPO 1812/1818 4000 SHRA BKN020TCU

Observacions i pronòstics meteorològics de més de 4000 aeroports (METAR i TAF).

Les estacions disponibles són els punts grocs i vermells al mapa.

Posi el ratolí al punt desitjat per veure el nom de l'estació.

Feu clic per veure les observacions i els pronòstics meteorològics.

Per canviar el mapa: feu clic els botons verds amb una creu de color negre per apropar; al botó verd amb un guió per allunyar la imatge; o en les fletxes verdes per a mapes adjacents.


METAR-TAF: